createdAt,value
2022-10-08T00:00:04.517Z,15.20
2022-10-08T00:02:49.628Z,15.20
2022-10-08T00:05:22.480Z,15.20
2022-10-08T00:07:56.229Z,15.20
2022-10-08T00:10:30.823Z,15.10
2022-10-08T00:13:07.631Z,15.10
2022-10-08T00:15:38.297Z,15.10
2022-10-08T00:18:40.201Z,15.20
2022-10-08T00:21:19.464Z,15.10
2022-10-08T00:23:51.981Z,15.10
2022-10-08T00:29:07.205Z,15.10
2022-10-08T00:31:41.509Z,15.10
2022-10-08T00:34:12.141Z,15.20
2022-10-08T00:36:41.858Z,15.20
2022-10-08T00:39:23.505Z,15.20
2022-10-08T00:44:54.132Z,15.10
2022-10-08T00:47:41.620Z,15.10
2022-10-08T00:50:26.503Z,15.10
2022-10-08T00:53:01.631Z,15.20
2022-10-08T00:55:43.990Z,15.10
2022-10-08T00:58:36.616Z,15.10
2022-10-08T01:01:09.439Z,15.10
2022-10-08T01:03:39.105Z,15.10
2022-10-08T01:06:38.100Z,15.20
2022-10-08T01:09:34.234Z,15.20
2022-10-08T01:12:37.773Z,15.20
2022-10-08T01:15:50.250Z,15.20
2022-10-08T01:18:36.856Z,15.20
2022-10-08T01:21:29.302Z,15.20
2022-10-08T01:25:03.108Z,15.20
2022-10-08T01:27:50.948Z,15.20
2022-10-08T01:30:25.650Z,15.20
2022-10-08T01:33:14.400Z,15.10
2022-10-08T01:35:54.203Z,15.20
2022-10-08T01:38:25.076Z,15.10
2022-10-08T01:41:02.343Z,15.20
2022-10-08T01:43:39.613Z,15.20
2022-10-08T01:46:18.430Z,15.20
2022-10-08T01:48:52.548Z,15.20
2022-10-08T01:51:44.653Z,15.20
2022-10-08T01:54:17.332Z,15.20
2022-10-08T01:56:48.327Z,15.20
2022-10-08T01:59:45.212Z,15.20
2022-10-08T02:02:25.390Z,15.20
2022-10-08T02:04:57.377Z,15.20
2022-10-08T02:07:33.629Z,15.20
2022-10-08T02:10:13.887Z,15.10
2022-10-08T02:12:44.657Z,15.20
2022-10-08T02:15:20.418Z,15.10
2022-10-08T02:18:10.458Z,15.10
2022-10-08T02:21:03.957Z,15.10
2022-10-08T02:23:56.046Z,15.10
2022-10-08T02:26:31.730Z,15.10
2022-10-08T02:29:01.505Z,15.10
2022-10-08T02:31:47.516Z,15.00
2022-10-08T02:34:29.218Z,15.00
2022-10-08T02:37:22.342Z,15.00
2022-10-08T02:40:02.925Z,15.00
2022-10-08T02:42:33.543Z,14.90
2022-10-08T02:45:22.015Z,14.90
2022-10-08T02:47:53.879Z,14.90
2022-10-08T02:50:31.841Z,14.80
2022-10-08T02:53:00.736Z,14.70
2022-10-08T02:55:52.053Z,14.70
2022-10-08T02:58:23.750Z,14.70
2022-10-08T03:01:14.337Z,14.60
2022-10-08T03:03:51.323Z,14.60
2022-10-08T03:06:19.056Z,14.50
2022-10-08T03:08:53.408Z,14.50
2022-10-08T03:11:25.991Z,14.50
2022-10-08T03:14:00.779Z,14.60
2022-10-08T03:16:40.948Z,14.60
2022-10-08T03:19:10.850Z,14.70
2022-10-08T03:21:40.230Z,14.70
2022-10-08T03:24:09.430Z,14.70
2022-10-08T03:26:37.213Z,14.70
2022-10-08T03:29:05.637Z,14.70
2022-10-08T03:31:38.691Z,14.80
2022-10-08T03:34:06.114Z,14.80
2022-10-08T03:36:33.586Z,14.80
2022-10-08T03:39:01.052Z,14.70
2022-10-08T03:41:31.550Z,14.70
2022-10-08T03:43:59.897Z,14.80
2022-10-08T03:46:27.294Z,14.70
2022-10-08T03:48:55.918Z,14.70
2022-10-08T03:51:26.530Z,14.70
2022-10-08T03:53:57.236Z,14.70
2022-10-08T03:56:29.437Z,14.60
2022-10-08T03:59:00.133Z,14.60
2022-10-08T04:01:30.576Z,14.50
2022-10-08T04:04:02.665Z,14.40
2022-10-08T04:06:30.716Z,14.40
2022-10-08T04:09:01.483Z,14.30
2022-10-08T04:11:29.906Z,14.30
2022-10-08T04:13:57.413Z,14.20
2022-10-08T04:16:32.711Z,14.20
2022-10-08T04:19:03.288Z,14.20
2022-10-08T04:21:40.735Z,14.20
2022-10-08T04:24:09.562Z,14.10
2022-10-08T04:26:38.333Z,14.10
2022-10-08T04:29:05.985Z,14.10
2022-10-08T04:31:40.188Z,14.10
2022-10-08T04:34:17.584Z,14.10
2022-10-08T04:36:49.825Z,14.00
2022-10-08T04:39:23.389Z,14.00
2022-10-08T04:41:58.255Z,14.00
2022-10-08T04:44:26.662Z,14.00
2022-10-08T04:46:58.760Z,13.90
2022-10-08T04:49:32.858Z,13.90
2022-10-08T04:52:00.883Z,13.90
2022-10-08T04:54:31.033Z,13.90
2022-10-08T04:57:04.097Z,13.90
2022-10-08T04:59:35.252Z,13.90
2022-10-08T05:02:14.106Z,13.90
2022-10-08T05:04:46.839Z,13.90
2022-10-08T05:07:29.813Z,14.00
2022-10-08T05:10:01.620Z,13.90
2022-10-08T05:12:29.381Z,13.90
2022-10-08T05:15:22.333Z,13.80
2022-10-08T05:17:50.814Z,13.80
2022-10-08T05:20:24.231Z,13.80
2022-10-08T05:22:59.448Z,13.70
2022-10-08T05:25:27.417Z,13.70
2022-10-08T05:28:00.008Z,13.70
2022-10-08T05:30:33.671Z,13.60
2022-10-08T05:33:02.360Z,13.60
2022-10-08T05:35:33.207Z,13.60
2022-10-08T05:38:01.596Z,13.60
2022-10-08T05:40:30.004Z,13.60
2022-10-08T05:42:57.642Z,13.50
2022-10-08T05:45:25.299Z,13.50
2022-10-08T05:47:52.737Z,13.50
2022-10-08T05:50:20.316Z,13.50
2022-10-08T05:52:50.395Z,13.50
2022-10-08T05:55:18.439Z,13.40
2022-10-08T05:57:45.829Z,13.40
2022-10-08T06:00:15.828Z,13.40
2022-10-08T06:02:42.982Z,13.40
2022-10-08T06:05:10.714Z,13.40
2022-10-08T06:07:38.013Z,13.40
2022-10-08T06:10:05.861Z,13.30
2022-10-08T06:12:36.242Z,13.40
2022-10-08T06:15:03.842Z,13.40
2022-10-08T06:17:31.579Z,13.40
2022-10-08T06:20:02.098Z,13.30
2022-10-08T06:22:33.871Z,13.30
2022-10-08T06:25:01.406Z,13.40
2022-10-08T06:27:30.984Z,13.40
2022-10-08T06:30:15.498Z,13.40
2022-10-08T06:32:43.654Z,13.40
2022-10-08T06:35:11.307Z,13.40
2022-10-08T06:37:43.454Z,13.40
2022-10-08T06:40:13.133Z,13.40
2022-10-08T06:42:46.010Z,13.50
2022-10-08T06:45:14.004Z,13.50
2022-10-08T06:47:51.611Z,13.60
2022-10-08T06:50:21.800Z,13.60
2022-10-08T06:52:51.575Z,13.70
2022-10-08T06:55:21.925Z,13.70
2022-10-08T06:57:52.338Z,13.70
2022-10-08T07:00:20.674Z,13.80
2022-10-08T07:02:50.751Z,13.90
2022-10-08T07:05:19.093Z,13.90
2022-10-08T07:07:46.996Z,14.00
2022-10-08T07:10:18.268Z,14.10
2022-10-08T07:12:49.256Z,14.10
2022-10-08T07:15:17.384Z,14.20
2022-10-08T07:17:51.490Z,14.30
2022-10-08T07:20:22.824Z,14.30
2022-10-08T07:22:50.272Z,14.40
2022-10-08T07:25:18.560Z,14.40
2022-10-08T07:27:48.058Z,14.50
2022-10-08T07:30:15.931Z,14.60
2022-10-08T07:32:43.288Z,14.80
2022-10-08T07:35:13.899Z,14.80
2022-10-08T07:37:45.122Z,14.90
2022-10-08T07:40:12.685Z,15.00
2022-10-08T07:42:40.616Z,15.10
2022-10-08T07:45:09.300Z,15.10
2022-10-08T07:47:36.735Z,15.20
2022-10-08T07:50:06.907Z,15.30
2022-10-08T07:52:37.292Z,15.30
2022-10-08T07:55:14.552Z,15.40
2022-10-08T07:57:47.341Z,15.50
2022-10-08T08:02:55.733Z,15.60
2022-10-08T08:05:27.857Z,15.70
2022-10-08T08:08:01.841Z,15.80
2022-10-08T08:10:33.674Z,15.90
2022-10-08T08:13:02.026Z,15.90
2022-10-08T08:15:33.325Z,16.00
2022-10-08T08:18:11.098Z,16.10
2022-10-08T08:20:55.497Z,16.20
2022-10-08T08:23:31.274Z,16.30
2022-10-08T08:26:23.041Z,16.40
2022-10-08T08:28:59.264Z,16.40
2022-10-08T08:31:47.676Z,16.50
2022-10-08T09:53:06.322Z,18.60
2022-10-08T09:55:36.577Z,18.70
2022-10-08T09:58:07.133Z,18.70
2022-10-08T10:00:39.649Z,18.50
2022-10-08T10:03:17.905Z,18.30
2022-10-08T10:05:55.263Z,18.10
2022-10-08T10:08:45.285Z,18.00
2022-10-08T10:11:19.699Z,18.10
2022-10-08T10:13:48.550Z,18.30
2022-10-08T10:16:28.327Z,18.60
2022-10-08T10:19:10.113Z,18.90
2022-10-08T10:21:50.078Z,19.10
2022-10-08T10:24:29.020Z,19.40
2022-10-08T10:27:03.691Z,19.60
2022-10-08T10:29:48.900Z,19.90
2022-10-08T10:32:23.806Z,20.00
2022-10-08T10:35:00.466Z,19.90
2022-10-08T10:37:40.225Z,19.70
2022-10-08T10:40:19.259Z,19.80
2022-10-08T10:43:14.682Z,19.80
2022-10-08T10:45:48.460Z,19.50
2022-10-08T10:48:15.655Z,19.20
2022-10-08T10:51:20.687Z,19.10
2022-10-08T10:54:00.811Z,19.20
2022-10-08T10:56:34.110Z,19.40
2022-10-08T10:59:44.958Z,19.60
2022-10-08T11:02:32.031Z,19.50
2022-10-08T11:05:22.912Z,19.60
2022-10-08T11:08:20.253Z,19.80
2022-10-08T11:10:53.211Z,19.90
2022-10-08T11:13:49.417Z,19.80
2022-10-08T11:16:16.541Z,19.80
2022-10-08T11:18:56.834Z,19.90
2022-10-08T11:22:12.250Z,20.00
2022-10-08T11:24:58.231Z,20.10
2022-10-08T11:27:36.710Z,20.20
2022-10-08T11:30:14.350Z,20.20
2022-10-08T11:32:54.136Z,20.30
2022-10-08T11:35:35.066Z,20.30
2022-10-08T11:38:16.048Z,20.30
2022-10-08T11:40:55.764Z,20.30
2022-10-08T11:43:32.702Z,20.50
2022-10-08T11:46:31.816Z,20.50
2022-10-08T11:49:02.101Z,20.50
2022-10-08T11:51:34.892Z,20.60
2022-10-08T11:54:17.882Z,20.50
2022-10-08T11:57:11.582Z,20.50
2022-10-08T11:59:43.603Z,20.50
2022-10-08T12:02:26.900Z,20.50
2022-10-08T12:15:35.662Z,20.50
2022-10-08T12:18:26.350Z,19.80
2022-10-08T12:21:20.601Z,19.80
2022-10-08T12:23:47.717Z,19.80
2022-10-08T12:26:15.797Z,19.80
2022-10-08T12:28:42.999Z,19.80
2022-10-08T12:31:18.028Z,19.70
2022-10-08T12:33:58.813Z,19.70
2022-10-08T12:36:40.192Z,19.60
2022-10-08T12:39:38.276Z,19.50
2022-10-08T12:42:29.942Z,19.50
2022-10-08T12:45:18.931Z,19.40
2022-10-08T12:48:08.972Z,19.30
2022-10-08T12:50:56.239Z,19.30
2022-10-08T12:53:23.751Z,19.20
2022-10-08T12:55:55.063Z,19.20
2022-10-08T12:58:28.648Z,19.40
2022-10-08T13:01:05.385Z,19.40
2022-10-08T13:03:39.368Z,19.50
2022-10-08T13:06:33.679Z,19.40
2022-10-08T13:09:28.684Z,19.30
2022-10-08T13:12:08.525Z,19.20
2022-10-08T13:14:49.847Z,19.20
2022-10-08T13:17:34.924Z,19.10
2022-10-08T13:20:20.984Z,19.00
2022-10-08T13:22:54.998Z,19.00
2022-10-08T13:25:49.650Z,19.00
2022-10-08T13:28:41.815Z,18.80
2022-10-08T13:31:27.117Z,18.60
2022-10-08T13:33:54.708Z,18.60
2022-10-08T13:36:23.501Z,18.60
2022-10-08T13:38:50.773Z,18.60
2022-10-08T13:41:23.934Z,18.70
2022-10-08T13:43:51.354Z,18.70
2022-10-08T13:46:18.447Z,18.80
2022-10-08T13:48:45.531Z,18.80
2022-10-08T13:51:16.069Z,18.80
2022-10-08T13:53:45.687Z,18.70
2022-10-08T13:56:18.136Z,18.60
2022-10-08T13:58:44.958Z,18.50
2022-10-08T14:01:12.083Z,18.50
2022-10-08T14:03:40.313Z,18.50
2022-10-08T14:06:07.828Z,18.50
2022-10-08T14:08:36.379Z,18.50
2022-10-08T14:11:03.742Z,18.40
2022-10-08T14:13:31.362Z,18.30
2022-10-08T14:15:59.022Z,18.30
2022-10-08T14:18:26.671Z,18.30
2022-10-08T14:20:53.521Z,18.30
2022-10-08T14:23:22.202Z,18.30
2022-10-08T14:25:49.132Z,18.40
2022-10-08T14:28:17.337Z,18.40
2022-10-08T14:30:44.261Z,18.30
2022-10-08T14:33:11.891Z,18.30
2022-10-08T14:35:39.597Z,18.20
2022-10-08T14:38:07.872Z,18.00
2022-10-08T14:40:38.999Z,18.00
2022-10-08T14:43:06.082Z,18.00
2022-10-08T14:45:33.046Z,18.00
2022-10-08T14:47:59.969Z,18.00
2022-10-08T14:50:26.830Z,18.00
2022-10-08T14:52:53.861Z,17.90
2022-10-08T14:55:22.469Z,17.90
2022-10-08T14:57:49.810Z,17.80
2022-10-08T15:00:17.107Z,17.70
2022-10-08T15:02:44.033Z,17.70
2022-10-08T15:05:11.027Z,17.70
2022-10-08T15:07:38.024Z,17.70
2022-10-08T15:10:05.593Z,17.70
2022-10-08T15:12:32.536Z,17.70
2022-10-08T15:14:59.654Z,17.80
2022-10-08T15:17:26.569Z,17.80
2022-10-08T15:19:53.404Z,17.80
2022-10-08T15:22:20.673Z,17.80
2022-10-08T15:24:47.853Z,17.70
2022-10-08T15:27:20.569Z,17.60
2022-10-08T15:29:48.203Z,17.50
2022-10-08T15:32:16.338Z,17.50
2022-10-08T15:34:43.469Z,17.40
2022-10-08T15:37:10.236Z,17.40
2022-10-08T15:39:37.659Z,17.40
2022-10-08T15:42:04.605Z,17.40
2022-10-08T15:44:31.990Z,17.40
2022-10-08T15:47:09.448Z,17.40
2022-10-08T15:49:38.967Z,17.40
2022-10-08T15:52:11.890Z,17.40
2022-10-08T15:54:40.138Z,17.30
2022-10-08T15:57:08.506Z,17.30
2022-10-08T15:59:36.004Z,17.30
2022-10-08T16:02:03.611Z,17.20
2022-10-08T16:04:30.496Z,17.20
2022-10-08T16:06:57.458Z,17.20
2022-10-08T16:09:24.718Z,17.20
2022-10-08T16:11:51.805Z,17.10
2022-10-08T16:14:24.335Z,17.10
2022-10-08T16:16:52.151Z,17.00
2022-10-08T16:19:22.395Z,16.90
2022-10-08T16:21:51.000Z,16.90
2022-10-08T16:24:20.850Z,16.80
2022-10-08T16:26:48.917Z,16.80
2022-10-08T16:29:20.464Z,16.80
2022-10-08T16:31:47.809Z,16.70
2022-10-08T16:34:18.650Z,16.60
2022-10-08T16:36:49.031Z,16.50
2022-10-08T16:39:18.909Z,16.40
2022-10-08T16:41:46.589Z,16.40
2022-10-08T16:44:16.285Z,16.30
2022-10-08T16:46:50.413Z,16.20
2022-10-08T16:49:24.483Z,16.20
2022-10-08T16:51:54.889Z,16.10
2022-10-08T16:54:21.715Z,16.00
2022-10-08T16:56:48.896Z,16.00
2022-10-08T16:59:21.570Z,15.90
2022-10-08T17:01:52.001Z,15.90
2022-10-08T17:04:20.357Z,15.80
2022-10-08T17:06:48.036Z,15.70
2022-10-08T17:09:15.178Z,15.60
2022-10-08T17:11:42.267Z,15.60
2022-10-08T17:14:11.694Z,15.50
2022-10-08T17:16:39.194Z,15.50
2022-10-08T17:19:06.414Z,15.40
2022-10-08T17:21:34.978Z,15.40
2022-10-08T17:24:02.840Z,15.30
2022-10-08T17:26:31.863Z,15.30
2022-10-08T17:29:04.340Z,15.30
2022-10-08T17:31:32.081Z,15.30
2022-10-08T17:34:00.672Z,15.20
2022-10-08T17:36:35.153Z,15.20
2022-10-08T17:39:06.072Z,15.20
2022-10-08T17:41:43.146Z,15.20
2022-10-08T17:44:11.711Z,15.10
2022-10-08T17:46:45.831Z,15.10
2022-10-08T17:49:20.615Z,15.10
2022-10-08T17:51:48.442Z,15.10
2022-10-08T17:54:20.181Z,15.10
2022-10-08T17:56:48.133Z,15.00
2022-10-08T17:59:19.180Z,15.00
2022-10-08T18:01:49.502Z,15.00
2022-10-08T18:04:18.851Z,15.00
2022-10-08T18:06:47.312Z,15.00
2022-10-08T18:09:20.110Z,14.90
2022-10-08T18:11:51.976Z,14.90
2022-10-08T18:14:20.490Z,14.90
2022-10-08T18:16:48.695Z,14.80
2022-10-08T18:19:16.962Z,14.80
2022-10-08T18:21:44.217Z,14.80
2022-10-08T18:24:11.252Z,14.70
2022-10-08T18:26:38.223Z,14.70
2022-10-08T18:29:09.263Z,14.70
2022-10-08T18:31:37.377Z,14.60
2022-10-08T18:34:07.638Z,14.60
2022-10-08T18:36:36.863Z,14.60
2022-10-08T18:39:12.337Z,14.60
2022-10-08T18:41:44.705Z,14.50
2022-10-08T18:44:18.419Z,14.50
2022-10-08T18:46:45.493Z,14.40
2022-10-08T18:49:14.507Z,14.40
2022-10-08T18:51:41.667Z,14.40
2022-10-08T18:54:10.267Z,14.40
2022-10-08T18:56:39.442Z,14.30
2022-10-08T18:59:14.894Z,14.30
2022-10-08T19:01:44.459Z,14.30
2022-10-08T19:04:17.083Z,14.30
2022-10-08T19:06:46.746Z,14.20
2022-10-08T19:09:14.523Z,14.20
2022-10-08T19:11:47.595Z,14.20
2022-10-08T19:14:17.139Z,14.20
2022-10-08T19:16:45.154Z,14.10
2022-10-08T19:19:16.519Z,14.10
2022-10-08T19:21:43.941Z,14.10
2022-10-08T19:24:14.742Z,14.10
2022-10-08T19:26:42.713Z,14.00
2022-10-08T19:29:21.065Z,14.00
2022-10-08T19:31:50.265Z,14.00
2022-10-08T19:34:21.055Z,14.00
2022-10-08T19:36:48.676Z,14.00
2022-10-08T19:39:18.563Z,13.90
2022-10-08T19:41:46.070Z,13.90
2022-10-08T19:44:13.180Z,13.90
2022-10-08T19:46:40.497Z,13.80
2022-10-08T19:49:10.060Z,13.80
2022-10-08T19:51:38.063Z,13.80
2022-10-08T19:54:05.822Z,13.80
2022-10-08T19:56:32.869Z,13.70
2022-10-08T19:58:59.927Z,13.70
2022-10-08T20:01:33.575Z,13.70
2022-10-08T20:04:01.951Z,13.60
2022-10-08T20:06:31.360Z,13.60
2022-10-08T20:09:01.191Z,13.60
2022-10-08T20:11:29.905Z,13.60
2022-10-08T20:13:57.495Z,13.50
2022-10-08T20:16:30.889Z,13.50
2022-10-08T20:19:04.151Z,13.50
2022-10-08T20:21:34.348Z,13.40
2022-10-08T20:24:01.630Z,13.40
2022-10-08T20:26:31.746Z,13.40
2022-10-08T20:29:01.166Z,13.40
2022-10-08T20:31:34.539Z,13.30
2022-10-08T20:34:12.065Z,13.30
2022-10-08T20:36:39.092Z,13.30
2022-10-08T20:39:06.418Z,13.30
2022-10-08T20:41:35.097Z,13.30
2022-10-08T20:44:04.119Z,13.20
2022-10-08T20:46:39.522Z,13.20
2022-10-08T20:49:07.418Z,13.20
2022-10-08T20:51:34.935Z,13.20
2022-10-08T20:54:04.486Z,13.10
2022-10-08T20:56:38.527Z,13.10
2022-10-08T20:59:19.479Z,13.10
2022-10-08T21:07:45.970Z,13.00
2022-10-08T21:10:13.290Z,13.00
2022-10-08T21:12:40.147Z,12.90
2022-10-08T21:15:07.936Z,12.90
2022-10-08T21:17:35.101Z,12.90
2022-10-08T21:20:02.135Z,12.90
2022-10-08T21:22:28.901Z,12.90
2022-10-08T21:24:55.931Z,12.90
2022-10-08T21:27:22.847Z,12.90
2022-10-08T21:29:50.890Z,12.90
2022-10-08T21:32:17.910Z,12.90
2022-10-08T21:34:44.855Z,12.90
2022-10-08T21:37:13.879Z,12.90
2022-10-08T21:39:40.926Z,12.90
2022-10-08T21:42:07.737Z,12.80
2022-10-08T21:44:34.740Z,12.80
2022-10-08T21:47:01.537Z,12.80
2022-10-08T21:49:28.390Z,12.80
2022-10-08T21:51:56.281Z,12.80
2022-10-08T21:54:23.034Z,12.70
2022-10-08T21:56:50.049Z,12.70
2022-10-08T21:59:16.980Z,12.70
2022-10-08T22:01:47.238Z,12.70
2022-10-08T22:04:19.523Z,12.70
2022-10-08T22:06:49.076Z,12.60
2022-10-08T22:09:30.338Z,12.60
2022-10-08T22:11:58.294Z,12.60
2022-10-08T22:14:25.892Z,12.60
2022-10-08T22:16:55.796Z,12.50
2022-10-08T22:19:22.643Z,12.50
2022-10-08T22:21:49.388Z,12.50
2022-10-08T22:24:19.277Z,12.50
2022-10-08T22:26:47.477Z,12.50
2022-10-08T22:29:15.038Z,12.50
2022-10-08T22:31:41.947Z,12.40
2022-10-08T22:34:09.283Z,12.40
2022-10-08T22:36:40.349Z,12.40
2022-10-08T22:39:07.399Z,12.40
2022-10-08T22:41:34.875Z,12.40
2022-10-08T22:44:03.702Z,12.40
2022-10-08T22:46:35.292Z,12.30
2022-10-08T22:49:05.855Z,12.30
2022-10-08T22:51:33.276Z,12.30
2022-10-08T22:54:00.125Z,12.30
2022-10-08T22:56:29.177Z,12.30
2022-10-08T22:58:57.289Z,12.20
2022-10-08T23:13:19.002Z,12.20
2022-10-08T23:15:48.811Z,12.10
2022-10-08T23:18:16.182Z,12.10
2022-10-08T23:20:43.608Z,12.10
2022-10-08T23:23:10.991Z,12.10
2022-10-08T23:25:38.297Z,12.00
2022-10-08T23:28:05.806Z,12.00
2022-10-08T23:30:43.030Z,12.00
2022-10-08T23:33:11.124Z,12.00
2022-10-08T23:35:44.338Z,12.00
2022-10-08T23:38:11.872Z,12.00
2022-10-08T23:40:42.096Z,11.90
2022-10-08T23:43:09.433Z,11.90
2022-10-08T23:45:36.754Z,11.90
2022-10-08T23:48:04.458Z,11.90
2022-10-08T23:50:39.259Z,11.80
2022-10-08T23:53:06.779Z,11.80
2022-10-08T23:55:44.367Z,11.80
2022-10-08T23:58:11.827Z,11.80
